Time;durP1;ratioP1;P1;durP2;ratioP2;P2;SDS_P1;SDS_P2;PMS_P1;PMS_P2;Temp;Humidity;BMP_temperature;BMP_pressure;BME280_temperature;BME280_humidity;BME280_pressure;Samples;Min_cycle;Max_cycle;Signal;HPM_P1;HPM_P2
2023/06/18 00:01:04;;;;;;;34.03;26.13;;;15.90;99.90;;;;;;5113159;28;20051;-77
2023/06/18 00:03:30;;;;;;;38.15;25.27;;;15.90;99.90;;;;;;5098863;28;20053;-77
2023/06/18 00:05:55;;;;;;;34.40;24.50;;;15.90;99.90;;;;;;5094121;28;20050;-78
2023/06/18 00:08:22;;;;;;;34.60;23.98;;;15.90;99.90;;;;;;5097342;28;20044;-76
2023/06/18 00:10:47;;;;;;;33.28;24.83;;;15.90;99.90;;;;;;5086990;28;20048;-77
2023/06/18 00:13:13;;;;;;;36.63;24.52;;;15.90;99.90;;;;;;5096674;28;20040;-76
2023/06/18 00:15:39;;;;;;;35.45;24.00;;;15.90;99.90;;;;;;5113084;27;20097;-77
2023/06/18 00:18:05;;;;;;;38.40;26.13;;;15.80;99.90;;;;;;5115158;27;20035;-77
2023/06/18 00:20:32;;;;;;;32.25;23.88;;;15.80;99.90;;;;;;5096884;28;20047;-76
2023/06/18 00:22:59;;;;;;;31.67;24.83;;;15.80;99.90;;;;;;5102229;28;20055;-77
2023/06/18 00:25:25;;;;;;;32.25;23.77;;;15.80;99.90;;;;;;5112061;28;20036;-78
2023/06/18 00:27:51;;;;;;;33.92;25.05;;;15.80;99.90;;;;;;5113000;28;20420;-77
2023/06/18 00:30:17;;;;;;;35.95;26.27;;;15.80;99.90;;;;;;5115247;28;20046;-77
2023/06/18 00:32:44;;;;;;;37.22;25.83;;;15.80;99.90;;;;;;5113351;28;20054;-77
2023/06/18 00:35:17;;;;;;;34.35;25.48;;;15.80;99.90;;;;;;5115168;28;20142;-77
2023/06/18 00:37:45;;;;;;;37.92;26.15;;;15.80;99.90;;;;;;5102783;28;20050;-78
2023/06/18 00:40:12;;;;;;;38.95;27.35;;;15.70;99.90;;;;;;5079026;28;20052;-76
2023/06/18 00:42:42;;;;;;;37.20;27.07;;;15.70;99.90;;;;;;5114957;28;20127;-77
2023/06/18 00:45:09;;;;;;;34.65;25.00;;;15.70;99.90;;;;;;5111699;28;20631;-76
2023/06/18 00:47:44;;;;;;;35.03;25.70;;;15.70;99.90;;;;;;5111751;28;20047;-76
2023/06/18 00:50:15;;;;;;;34.70;25.38;;;15.80;99.90;;;;;;5113718;27;20058;-77
2023/06/18 00:52:44;;;;;;;36.22;25.13;;;15.80;99.90;;;;;;5110474;27;20048;-76
2023/06/18 00:55:12;;;;;;;39.83;26.95;;;15.70;99.90;;;;;;5134027;27;20096;-77
2023/06/18 00:57:37;;;;;;;31.00;24.15;;;15.70;99.90;;;;;;5122774;27;20424;-78
2023/06/18 01:00:12;;;;;;;35.30;25.40;;;15.70;99.90;;;;;;5069809;28;20047;-76
2023/06/18 01:02:45;;;;;;;37.92;27.20;;;15.70;99.90;;;;;;5092084;28;20514;-76
2023/06/18 01:05:12;;;;;;;40.70;27.38;;;15.70;99.90;;;;;;5109538;28;20090;-77
2023/06/18 01:07:39;;;;;;;39.47;27.23;;;15.60;99.90;;;;;;5100621;28;20057;-77
2023/06/18 01:10:05;;;;;;;38.72;26.17;;;15.70;99.90;;;;;;5104547;27;20048;-76
2023/06/18 01:12:31;;;;;;;39.40;27.58;;;15.60;99.90;;;;;;5121168;27;20123;-76
2023/06/18 01:14:57;;;;;;;40.90;26.17;;;15.60;99.90;;;;;;5083885;28;20189;-76
2023/06/18 01:17:29;;;;;;;39.78;27.67;;;15.50;99.90;;;;;;5097003;28;20503;-76
2023/06/18 01:20:10;;;;;;;36.85;26.02;;;15.60;99.90;;;;;;5115218;28;20043;-77
2023/06/18 01:22:46;;;;;;;36.40;25.90;;;15.50;99.90;;;;;;5077060;28;20036;-77
2023/06/18 01:25:13;;;;;;;34.95;25.40;;;15.50;99.90;;;;;;5112512;28;20043;-76
2023/06/18 01:27:40;;;;;;;40.00;28.33;;;15.50;99.90;;;;;;5108062;28;20032;-76
2023/06/18 01:30:11;;;;;;;36.83;25.75;;;15.60;99.90;;;;;;5094076;28;20052;-76
2023/06/18 01:32:38;;;;;;;39.10;26.95;;;15.60;99.90;;;;;;5095557;28;20123;-76
2023/06/18 01:35:08;;;;;;;41.30;27.58;;;15.60;99.90;;;;;;5093769;28;20460;-76
2023/06/18 01:38:15;;;;;;;39.80;25.98;;;15.50;99.90;;;;;;5094969;28;20498;-77
2023/06/18 01:41:03;;;;;;;39.10;27.35;;;15.50;99.90;;;;;;5091151;28;20049;-77
2023/06/18 01:43:42;;;;;;;38.38;26.55;;;15.50;99.90;;;;;;5094974;28;20048;-76
2023/06/18 01:46:10;;;;;;;;;;;15.50;99.90;;;;;;5094478;28;20052;-76
2023/06/18 01:48:48;;;;;;;46.17;29.02;;;15.50;99.90;;;;;;5078536;28;19926;-76
2023/06/18 01:51:18;;;;;;;47.28;29.02;;;15.50;99.90;;;;;;5105906;27;20168;-76
2023/06/18 01:53:45;;;;;;;46.00;28.63;;;15.40;99.90;;;;;;5131959;27;20044;-76
2023/06/18 01:56:13;;;;;;;49.75;30.92;;;15.40;99.90;;;;;;5096042;28;20044;-76
2023/06/18 01:58:42;;;;;;;44.13;29.98;;;15.40;99.90;;;;;;5102067;28;20055;-76
2023/06/18 02:01:11;;;;;;;39.17;28.92;;;15.40;99.90;;;;;;5082225;28;20422;-77
2023/06/18 02:03:37;;;;;;;40.45;26.27;;;15.40;99.90;;;;;;5101442;28;20069;-76
2023/06/18 02:06:04;;;;;;;42.05;28.58;;;15.40;99.90;;;;;;5076956;28;20047;-76
2023/06/18 02:08:29;;;;;;;42.97;29.48;;;15.40;99.90;;;;;;5097270;28;20553;-76
2023/06/18 02:10:55;;;;;;;45.60;30.17;;;15.30;99.90;;;;;;5108902;28;20047;-77
2023/06/18 02:13:21;;;;;;;44.05;30.33;;;15.30;99.90;;;;;;5104166;27;20035;-77
2023/06/18 02:15:46;;;;;;;47.80;30.33;;;15.40;99.90;;;;;;5107600;27;20031;-76
2023/06/18 02:18:12;;;;;;;39.20;28.00;;;15.30;99.90;;;;;;5100852;28;20126;-76
2023/06/18 02:20:42;;;;;;;41.60;27.85;;;15.30;99.90;;;;;;5106792;28;20036;-76
2023/06/18 02:23:08;;;;;;;45.40;30.63;;;15.30;99.90;;;;;;5094428;28;20082;-77
2023/06/18 02:25:35;;;;;;;42.72;29.23;;;15.30;99.90;;;;;;5088342;28;20036;-77
2023/06/18 02:28:04;;;;;;;43.08;29.95;;;15.30;99.90;;;;;;5099710;28;20052;-76
2023/06/18 02:30:30;;;;;;;45.88;29.65;;;15.20;99.90;;;;;;5108870;28;20054;-77
2023/06/18 02:33:06;;;;;;;45.10;29.25;;;15.20;99.90;;;;;;5098809;28;20240;-77
2023/06/18 02:35:33;;;;;;;42.90;28.48;;;15.20;99.90;;;;;;5118990;27;20036;-76
2023/06/18 02:37:58;;;;;;;42.60;28.33;;;15.20;99.90;;;;;;5080835;28;20407;-76
2023/06/18 02:40:25;;;;;;;42.75;30.95;;;15.20;99.90;;;;;;5107063;28;20039;-77
2023/06/18 02:42:52;;;;;;;47.03;31.50;;;15.20;99.90;;;;;;5113819;28;20051;-75
2023/06/18 02:45:21;;;;;;;47.25;29.58;;;15.20;99.90;;;;;;5089894;28;20103;-76
2023/06/18 02:47:48;;;;;;;73.15;27.33;;;15.10;99.90;;;;;;5112367;27;20162;-77
2023/06/18 02:50:15;;;;;;;49.40;25.38;;;15.10;99.90;;;;;;5110523;28;20066;-76
2023/06/18 02:52:42;;;;;;;44.28;24.65;;;15.10;99.90;;;;;;5125323;27;20494;-77
2023/06/18 02:55:09;;;;;;;66.82;25.33;;;15.10;99.90;;;;;;5101666;27;20051;-76
2023/06/18 02:57:36;;;;;;;44.65;24.45;;;15.00;99.90;;;;;;5114545;28;20046;-76
2023/06/18 03:00:10;;;;;;;42.20;23.38;;;14.90;99.90;;;;;;5113323;28;20040;-76
2023/06/18 03:02:37;;;;;;;53.40;26.00;;;15.00;99.90;;;;;;5104110;28;20365;-78
2023/06/18 03:05:04;;;;;;;87.45;28.17;;;14.80;99.90;;;;;;5083917;28;20071;-76
2023/06/18 03:07:30;;;;;;;82.07;29.00;;;14.90;99.90;;;;;;5094073;28;20435;-77
2023/06/18 03:09:55;;;;;;;138.13;32.63;;;14.80;99.90;;;;;;5101869;28;20426;-77
2023/06/18 03:12:22;;;;;;;79.70;30.42;;;14.70;99.90;;;;;;5092758;28;20051;-76
2023/06/18 03:14:48;;;;;;;86.32;29.58;;;14.70;99.90;;;;;;5105165;28;20043;-77
2023/06/18 03:17:16;;;;;;;118.20;31.20;;;14.70;99.90;;;;;;5092242;28;20035;-77
2023/06/18 03:19:42;;;;;;;46.65;29.27;;;14.60;99.90;;;;;;5108145;28;20115;-77
2023/06/18 03:22:07;;;;;;;116.15;33.65;;;14.70;99.90;;;;;;5119735;28;20381;-77
2023/06/18 03:24:34;;;;;;;51.47;29.00;;;14.60;99.90;;;;;;5077836;28;20036;-77
2023/06/18 03:27:00;;;;;;;44.70;29.40;;;14.60;99.90;;;;;;5097259;28;20204;-77
2023/06/18 03:29:28;;;;;;;45.45;29.73;;;14.60;99.90;;;;;;5111264;28;20465;-77
2023/06/18 03:31:54;;;;;;;62.90;29.58;;;14.70;99.90;;;;;;5105350;28;20040;-77
2023/06/18 03:34:20;;;;;;;38.70;27.05;;;14.70;99.90;;;;;;5107105;28;20054;-77
2023/06/18 03:36:48;;;;;;;45.13;29.75;;;14.70;99.90;;;;;;5098399;28;20043;-76
2023/06/18 03:39:15;;;;;;;45.35;29.10;;;14.70;99.90;;;;;;5106742;28;20031;-78
2023/06/18 03:41:41;;;;;;;41.35;28.50;;;14.70;99.90;;;;;;5109183;28;20058;-77
2023/06/18 03:44:06;;;;;;;64.20;31.77;;;14.70;99.90;;;;;;5095785;28;20036;-76
2023/06/18 03:46:32;;;;;;;45.15;29.80;;;14.70;99.90;;;;;;5115847;28;20490;-76
2023/06/18 03:48:58;;;;;;;41.92;28.70;;;14.80;99.90;;;;;;5076816;28;20048;-77
2023/06/18 03:51:25;;;;;;;46.08;28.85;;;14.80;99.90;;;;;;5101714;28;20067;-76
2023/06/18 03:53:51;;;;;;;42.33;29.30;;;14.80;99.90;;;;;;5106392;28;20098;-76
2023/06/18 03:56:17;;;;;;;78.25;32.15;;;14.90;99.90;;;;;;5095815;28;20075;-76
2023/06/18 03:58:43;;;;;;;49.28;29.30;;;14.90;99.90;;;;;;5078165;28;20052;-77
2023/06/18 04:01:10;;;;;;;95.75;30.27;;;14.90;99.90;;;;;;5113993;28;20431;-77
2023/06/18 04:03:36;;;;;;;46.95;26.98;;;14.90;99.90;;;;;;5105037;28;20032;-77
2023/06/18 04:06:02;;;;;;;51.00;27.40;;;14.90;99.90;;;;;;5079162;28;20036;-77
2023/06/18 04:08:28;;;;;;;51.25;26.63;;;14.90;99.90;;;;;;5114557;28;20058;-76
2023/06/18 04:10:55;;;;;;;59.28;27.42;;;14.90;99.90;;;;;;5086426;28;20051;-77
2023/06/18 04:13:22;;;;;;;55.30;25.55;;;14.80;99.90;;;;;;5095604;28;20085;-78
2023/06/18 04:15:48;;;;;;;46.72;26.25;;;15.00;99.90;;;;;;5113041;28;20549;-77
2023/06/18 04:18:14;;;;;;;44.78;25.20;;;15.00;99.90;;;;;;5082653;28;20046;-76
2023/06/18 04:20:40;;;;;;;50.08;25.40;;;15.00;99.90;;;;;;5098389;28;20044;-77
2023/06/18 04:23:06;;;;;;;63.72;25.60;;;15.00;99.90;;;;;;5107741;28;20129;-78
2023/06/18 04:25:32;;;;;;;56.22;26.08;;;15.00;99.90;;;;;;5084011;28;20504;-78
2023/06/18 04:27:58;;;;;;;57.35;26.25;;;15.20;99.90;;;;;;5092679;28;20054;-78
2023/06/18 04:30:24;;;;;;;43.33;24.00;;;15.10;99.90;;;;;;5114037;28;20040;-77
2023/06/18 04:32:50;;;;;;;47.15;25.23;;;15.20;99.90;;;;;;5091786;27;20039;-77
2023/06/18 04:35:16;;;;;;;38.40;24.08;;;15.20;99.90;;;;;;5109260;28;20040;-77
2023/06/18 04:37:41;;;;;;;38.90;23.00;;;15.20;99.90;;;;;;5111957;28;20047;-77
2023/06/18 04:40:08;;;;;;;80.15;26.77;;;15.20;99.90;;;;;;5099680;28;20373;-77
2023/06/18 04:42:35;;;;;;;52.80;26.60;;;15.30;99.90;;;;;;5081564;28;20401;-77
2023/06/18 04:45:01;;;;;;;65.25;26.88;;;15.20;99.90;;;;;;5103064;28;20067;-77
2023/06/18 04:47:26;;;;;;;70.97;28.05;;;15.20;99.90;;;;;;5097489;28;20075;-77
2023/06/18 04:49:52;;;;;;;57.22;27.05;;;15.30;99.90;;;;;;5092133;28;20036;-77
2023/06/18 04:52:17;;;;;;;52.40;27.13;;;15.40;99.90;;;;;;5122885;27;20043;-77
2023/06/18 04:54:44;;;;;;;40.15;25.70;;;15.40;99.90;;;;;;5096571;28;20123;-78
2023/06/18 04:57:10;;;;;;;41.88;26.00;;;15.50;99.90;;;;;;5107756;28;20046;-76
2023/06/18 04:59:39;;;;;;;38.65;24.48;;;15.60;99.90;;;;;;5091556;28;20032;-75
2023/06/18 05:02:06;;;;;;;42.95;24.85;;;15.50;99.90;;;;;;5088196;28;20036;-78
2023/06/18 05:04:32;;;;;;;45.47;23.55;;;15.50;99.90;;;;;;5078997;28;20402;-77
2023/06/18 05:06:58;;;;;;;39.10;22.85;;;15.50;99.90;;;;;;5102979;28;20055;-77
2023/06/18 05:09:25;;;;;;;37.83;23.42;;;15.50;99.90;;;;;;5103541;28;20032;-76
2023/06/18 05:11:51;;;;;;;30.80;21.80;;;15.50;99.90;;;;;;5082734;28;20055;-77
2023/06/18 05:14:19;;;;;;;34.72;22.15;;;15.50;99.90;;;;;;5112833;28;20039;-78
2023/06/18 05:16:45;;;;;;;42.83;24.73;;;15.60;99.90;;;;;;5103920;28;20123;-77
2023/06/18 05:19:10;;;;;;;30.70;21.42;;;15.70;99.90;;;;;;5104331;28;20039;-78
2023/06/18 05:21:36;;;;;;;32.47;22.70;;;15.70;99.90;;;;;;5117869;27;20447;-77
2023/06/18 05:24:02;;;;;;;29.42;21.08;;;15.70;99.90;;;;;;5094799;28;20451;-77
2023/06/18 05:26:27;;;;;;;27.75;20.23;;;15.70;99.90;;;;;;5104014;28;20039;-77
2023/06/18 05:28:54;;;;;;;28.13;20.83;;;15.80;99.90;;;;;;5086539;28;20074;-78
2023/06/18 05:31:20;;;;;;;24.75;18.58;;;15.90;99.90;;;;;;5093482;28;20075;-77
2023/06/18 05:33:45;;;;;;;27.55;18.77;;;15.90;99.90;;;;;;5101709;28;20477;-77
2023/06/18 05:36:11;;;;;;;22.42;17.05;;;16.00;99.90;;;;;;5094425;28;20047;-77
2023/06/18 05:38:36;;;;;;;22.55;17.60;;;16.10;99.90;;;;;;5106698;28;20450;-78
2023/06/18 05:41:02;;;;;;;22.05;17.02;;;16.30;99.90;;;;;;5098223;28;20040;-78
2023/06/18 05:43:28;;;;;;;21.52;17.35;;;16.40;99.90;;;;;;5109996;28;20052;-78
2023/06/18 05:45:54;;;;;;;23.67;19.27;;;16.50;99.90;;;;;;5104902;28;20043;-78
2023/06/18 05:48:19;;;;;;;22.75;16.83;;;16.60;99.90;;;;;;5099887;28;20090;-77
2023/06/18 05:50:45;;;;;;;21.42;17.23;;;16.80;99.90;;;;;;5103217;28;20109;-77
2023/06/18 05:53:10;;;;;;;19.13;16.20;;;16.90;99.90;;;;;;5098859;28;20139;-77
2023/06/18 05:55:36;;;;;;;21.05;16.95;;;17.10;99.90;;;;;;5113472;27;20051;-76
2023/06/18 05:58:02;;;;;;;21.95;17.35;;;17.20;99.90;;;;;;5095062;28;20484;-77
2023/06/18 06:00:28;;;;;;;21.30;16.75;;;17.40;99.90;;;;;;5097718;28;20055;-76
2023/06/18 06:02:53;;;;;;;20.20;16.35;;;17.50;99.90;;;;;;5111801;28;20036;-77
2023/06/18 06:05:20;;;;;;;20.75;16.30;;;17.70;99.90;;;;;;5113101;28;20036;-77
2023/06/18 06:07:46;;;;;;;17.38;15.32;;;17.70;99.90;;;;;;5114140;28;20044;-77
2023/06/18 06:10:14;;;;;;;20.05;16.00;;;17.90;99.90;;;;;;5096554;28;20495;-77
2023/06/18 06:12:40;;;;;;;;;;;18.10;99.90;;;;;;5095584;28;20044;-78
2023/06/18 06:15:06;;;;;;;18.27;14.38;;;18.20;99.90;;;;;;5110736;28;19923;-77
2023/06/18 06:17:32;;;;;;;18.83;16.00;;;18.40;99.90;;;;;;5111757;28;20051;-76
2023/06/18 06:19:57;;;;;;;19.73;15.50;;;18.50;99.90;;;;;;5103006;28;20116;-78
2023/06/18 06:22:23;;;;;;;17.48;14.95;;;18.50;99.90;;;;;;5107245;28;20079;-76
2023/06/18 06:24:48;;;;;;;17.00;14.48;;;18.50;99.90;;;;;;5111951;28;20066;-76
2023/06/18 06:27:14;;;;;;;20.98;13.70;;;18.50;99.90;;;;;;5094730;28;20038;-78
2023/06/18 06:29:40;;;;;;;16.02;13.40;;;18.50;99.90;;;;;;5110614;28;20382;-77
2023/06/18 06:32:05;;;;;;;18.83;14.48;;;18.60;99.90;;;;;;5095229;28;20051;-78
2023/06/18 06:34:31;;;;;;;18.73;14.50;;;18.50;99.90;;;;;;5099099;28;20043;-77
2023/06/18 06:36:57;;;;;;;16.90;13.10;;;18.50;99.90;;;;;;5100483;28;20040;-77
2023/06/18 06:39:23;;;;;;;16.05;13.45;;;18.50;99.90;;;;;;5105721;28;20050;-76
2023/06/18 06:41:48;;;;;;;15.15;12.98;;;18.60;99.90;;;;;;5095103;28;20381;-77
2023/06/18 06:44:15;;;;;;;18.45;13.18;;;18.60;99.90;;;;;;5105195;28;20092;-77
2023/06/18 06:46:41;;;;;;;17.05;14.45;;;18.70;99.90;;;;;;5093477;28;20404;-78
2023/06/18 06:49:07;;;;;;;19.27;14.02;;;18.90;99.90;;;;;;5094979;28;20115;-75
2023/06/18 06:51:36;;;;;;;17.98;13.57;;;18.80;99.90;;;;;;5095236;28;20044;-76
2023/06/18 06:54:03;;;;;;;17.65;12.52;;;18.90;99.90;;;;;;5107130;28;20083;-76
2023/06/18 06:56:28;;;;;;;14.55;12.10;;;19.00;99.90;;;;;;5087365;28;20089;-75
2023/06/18 06:58:54;;;;;;;16.80;12.57;;;19.10;99.90;;;;;;5067069;28;20035;-76
2023/06/18 07:01:23;;;;;;;16.73;13.05;;;19.20;99.90;;;;;;5103872;28;20043;-76
2023/06/18 07:03:48;;;;;;;14.93;12.52;;;19.20;99.90;;;;;;5104241;28;20040;-77
2023/06/18 07:06:14;;;;;;;19.33;13.57;;;19.30;99.90;;;;;;5102314;28;20036;-78
2023/06/18 07:08:40;;;;;;;17.20;14.27;;;19.40;99.90;;;;;;5071503;28;20128;-78
2023/06/18 07:11:07;;;;;;;16.17;12.90;;;19.50;99.90;;;;;;5084807;28;20093;-77
2023/06/18 07:13:33;;;;;;;17.33;14.07;;;19.60;99.90;;;;;;5103351;28;20078;-75
2023/06/18 07:15:59;;;;;;;15.95;13.02;;;19.70;99.90;;;;;;5094418;28;20032;-76
2023/06/18 07:18:24;;;;;;;16.52;13.15;;;19.70;99.90;;;;;;5086836;28;20127;-76
2023/06/18 07:20:50;;;;;;;17.05;13.32;;;19.60;99.90;;;;;;5100034;28;20039;-76
2023/06/18 07:23:15;;;;;;;16.13;13.20;;;19.80;99.90;;;;;;5100962;28;20036;-76
2023/06/18 07:25:41;;;;;;;16.77;12.75;;;19.90;99.90;;;;;;5101754;28;20032;-76
2023/06/18 07:28:07;;;;;;;14.50;12.75;;;20.00;99.90;;;;;;5097437;28;20093;-77
2023/06/18 07:30:32;;;;;;;19.13;12.10;;;20.10;99.90;;;;;;5110221;28;20047;-77
2023/06/18 07:32:58;;;;;;;16.10;13.80;;;20.00;99.90;;;;;;5122545;28;20532;-76
2023/06/18 07:35:24;;;;;;;19.05;12.80;;;20.00;99.90;;;;;;5104810;28;20050;-77
2023/06/18 07:37:49;;;;;;;15.75;12.68;;;20.20;99.90;;;;;;5099018;28;20070;-77
2023/06/18 07:40:15;;;;;;;24.00;13.63;;;20.30;99.90;;;;;;5101082;28;20419;-76
2023/06/18 07:42:41;;;;;;;16.10;13.13;;;20.50;99.90;;;;;;5107203;28;20420;-76
2023/06/18 07:45:07;;;;;;;16.42;13.32;;;20.60;99.90;;;;;;5102483;28;20044;-76
2023/06/18 07:47:33;;;;;;;18.08;13.68;;;20.70;99.90;;;;;;5108453;28;20040;-77
2023/06/18 07:49:59;;;;;;;19.23;14.38;;;20.90;99.90;;;;;;5084712;28;20497;-77
2023/06/18 07:52:25;;;;;;;29.13;17.98;;;21.00;99.90;;;;;;5105365;27;20469;-77
2023/06/18 07:54:51;;;;;;;20.60;14.27;;;21.20;99.90;;;;;;5110146;28;20043;-79
2023/06/18 07:57:17;;;;;;;18.83;14.68;;;21.20;99.90;;;;;;5111653;28;20043;-76
2023/06/18 07:59:42;;;;;;;19.75;15.10;;;21.40;99.90;;;;;;5102478;28;20040;-78
2023/06/18 08:02:08;;;;;;;21.35;15.05;;;21.40;99.90;;;;;;5087923;28;20442;-77
2023/06/18 08:04:34;;;;;;;16.98;13.90;;;21.50;99.90;;;;;;5082857;28;20056;-77
2023/06/18 08:07:00;;;;;;;16.25;13.45;;;21.60;99.90;;;;;;5114498;28;20378;-76
2023/06/18 08:09:26;;;;;;;18.40;13.93;;;21.60;99.90;;;;;;5104726;28;20433;-78
2023/06/18 08:11:51;;;;;;;16.92;13.45;;;21.70;99.90;;;;;;5127933;27;20047;-78
2023/06/18 08:14:18;;;;;;;17.38;13.60;;;21.90;99.90;;;;;;5101107;28;20040;-78
2023/06/18 08:16:43;;;;;;;15.15;12.70;;;22.00;99.90;;;;;;5098046;28;20060;-77
2023/06/18 08:19:09;;;;;;;15.73;13.18;;;22.20;99.90;;;;;;5117046;27;20093;-77
2023/06/18 08:21:35;;;;;;;18.17;13.35;;;22.40;99.90;;;;;;5114203;28;20043;-77
2023/06/18 08:24:01;;;;;;;17.70;12.18;;;22.50;99.90;;;;;;5108024;28;20085;-78
2023/06/18 08:26:27;;;;;;;15.38;11.98;;;22.60;99.90;;;;;;5109738;28;20032;-76
2023/06/18 08:28:52;;;;;;;18.77;12.57;;;22.90;99.90;;;;;;5114494;28;20046;-78
2023/06/18 08:31:20;;;;;;;15.55;11.15;;;22.90;99.90;;;;;;5111799;28;20393;-77
2023/06/18 08:33:46;;;;;;;;;;;23.10;99.90;;;;;;5099963;28;20134;-77
2023/06/18 08:36:11;;;;;;;15.90;12.70;;;23.20;99.90;;;;;;5115264;27;20392;-78
2023/06/18 08:38:37;;;;;;;16.98;13.40;;;23.30;99.90;;;;;;5100695;28;20394;-78
2023/06/18 08:41:03;;;;;;;15.05;12.50;;;23.40;99.90;;;;;;5097819;28;20038;-78
2023/06/18 08:43:32;;;;;;;15.27;11.60;;;23.50;99.90;;;;;;5110141;28;20040;-78
2023/06/18 08:46:05;;;;;;;15.77;11.90;;;23.60;99.90;;;;;;5075629;28;20051;-79
2023/06/18 08:48:34;;;;;;;14.55;11.38;;;23.80;99.90;;;;;;5094770;28;20417;-76
2023/06/18 08:51:03;;;;;;;13.65;11.07;;;24.00;99.90;;;;;;5096994;28;20119;-77
2023/06/18 08:53:50;;;;;;;14.52;10.98;;;24.20;99.90;;;;;;5112105;27;20052;-77
2023/06/18 08:56:21;;;;;;;14.43;11.60;;;24.50;99.90;;;;;;5118774;27;20047;-77
2023/06/18 08:58:52;;;;;;;15.57;10.75;;;24.70;99.90;;;;;;5114781;27;20042;-79
2023/06/18 09:01:22;;;;;;;17.08;12.05;;;24.90;99.90;;;;;;5073257;27;20132;-78
2023/06/18 09:03:49;;;;;;;14.80;11.90;;;25.10;99.90;;;;;;5108537;28;20051;-78
2023/06/18 09:06:15;;;;;;;15.77;10.98;;;25.10;99.90;;;;;;5104750;28;20075;-76
2023/06/18 09:08:41;;;;;;;10.73;8.85;;;25.10;99.90;;;;;;5089277;27;20078;-78
2023/06/18 09:11:07;;;;;;;15.30;10.38;;;25.10;99.90;;;;;;5090508;28;20052;-79
2023/06/18 09:13:33;;;;;;;15.18;10.32;;;25.20;99.90;;;;;;5106180;28;20040;-76
2023/06/18 09:16:02;;;;;;;13.13;9.20;;;25.20;99.90;;;;;;5080033;28;20119;-77
2023/06/18 09:18:28;;;;;;;13.02;9.52;;;25.40;99.90;;;;;;5105737;28;20398;-78
2023/06/18 09:20:53;;;;;;;16.88;10.52;;;25.50;99.90;;;;;;5101264;28;20048;-77
2023/06/18 09:23:19;;;;;;;13.57;9.60;;;25.60;99.90;;;;;;5109648;27;20039;-77
2023/06/18 09:25:54;;;;;;;16.17;8.77;;;25.80;99.90;;;;;;5111997;27;20039;-78
2023/06/18 09:28:20;;;;;;;12.20;8.57;;;26.00;99.70;;;;;;5100309;28;20149;-78
2023/06/18 09:30:55;;;;;;;11.35;9.20;;;26.20;99.80;;;;;;5088454;28;20104;-76
2023/06/18 09:33:37;;;;;;;15.18;10.88;;;26.30;99.50;;;;;;5097516;27;20031;-77
2023/06/18 09:36:08;;;;;;;11.10;8.73;;;26.50;99.30;;;;;;5097833;28;20363;-78
2023/06/18 09:38:39;;;;;;;10.85;7.65;;;26.60;99.70;;;;;;5097492;28;20093;-77
2023/06/18 09:41:16;;;;;;;12.10;7.90;;;26.70;98.60;;;;;;5098817;28;20051;-78
2023/06/18 09:43:45;;;;;;;12.48;7.90;;;26.80;97.40;;;;;;5107944;28;20092;-78
2023/06/18 09:46:12;;;;;;;12.43;8.27;;;26.80;97.40;;;;;;5104942;28;20035;-78
2023/06/18 09:48:40;;;;;;;10.65;7.88;;;26.90;97.30;;;;;;5092006;28;20157;-76
2023/06/18 09:51:06;;;;;;;9.35;7.45;;;26.90;96.20;;;;;;5096118;28;20401;-76
2023/06/18 09:53:33;;;;;;;10.70;8.57;;;27.10;96.10;;;;;;5101643;28;20646;-77
2023/06/18 09:56:16;;;;;;;10.32;6.70;;;27.20;95.70;;;;;;5116071;28;20092;-75
2023/06/18 09:58:43;;;;;;;9.77;6.38;;;27.30;94.20;;;;;;5114687;28;20067;-77
2023/06/18 10:01:09;;;;;;;13.85;7.72;;;27.40;93.80;;;;;;5077178;28;20055;-78
2023/06/18 10:03:36;;;;;;;11.30;8.25;;;27.60;94.50;;;;;;5104026;28;20470;-77
2023/06/18 10:06:12;;;;;;;8.82;6.65;;;27.60;93.50;;;;;;5112357;28;20055;-76
2023/06/18 10:08:40;;;;;;;11.75;7.07;;;27.70;93.60;;;;;;5113792;27;20041;-78
2023/06/18 10:11:09;;;;;;;9.73;6.65;;;27.70;93.30;;;;;;5086126;28;20036;-78
2023/06/18 10:13:49;;;;;;;11.20;7.22;;;27.60;92.80;;;;;;5102617;28;20012;-76
2023/06/18 10:16:17;;;;;;;8.18;6.57;;;27.60;92.30;;;;;;5088323;27;20146;-78
2023/06/18 10:19:01;;;;;;;11.18;6.43;;;27.70;92.20;;;;;;5115237;28;20047;-78
2023/06/18 10:21:31;;;;;;;10.88;6.65;;;27.90;90.10;;;;;;5110699;28;20061;-79
2023/06/18 10:24:08;;;;;;;8.88;6.28;;;28.00;91.20;;;;;;5111512;27;20127;-78
2023/06/18 10:26:36;;;;;;;12.35;6.72;;;28.20;90.80;;;;;;5092563;28;20043;-79
2023/06/18 10:29:03;;;;;;;8.38;5.78;;;28.20;90.80;;;;;;5106196;28;20044;-79
2023/06/18 10:31:29;;;;;;;8.87;6.03;;;28.20;89.80;;;;;;5102206;28;20058;-77
2023/06/18 10:33:56;;;;;;;10.32;6.43;;;28.30;88.00;;;;;;5106535;27;20040;-78
2023/06/18 10:36:23;;;;;;;13.20;6.53;;;28.30;87.80;;;;;;5085973;28;20039;-78
2023/06/18 10:38:50;;;;;;;8.80;6.78;;;28.40;88.40;;;;;;5116986;28;20126;-77
2023/06/18 10:41:20;;;;;;;9.80;6.40;;;28.40;88.00;;;;;;5098828;28;20040;-78
2023/06/18 10:43:53;;;;;;;7.32;6.30;;;28.60;88.00;;;;;;5118907;28;20126;-76
2023/06/18 10:46:20;;;;;;;8.23;6.18;;;28.70;86.50;;;;;;5100582;28;20040;-78
2023/06/18 10:49:19;;;;;;;9.45;6.32;;;28.90;85.30;;;;;;5093022;28;20032;-77
2023/06/18 10:52:12;;;;;;;9.60;6.07;;;28.90;83.40;;;;;;5114996;28;20066;-76
2023/06/18 10:54:38;;;;;;;9.73;6.45;;;29.20;83.30;;;;;;5073378;28;20139;-77
2023/06/18 10:57:04;;;;;;;7.38;6.07;;;29.30;84.10;;;;;;5105764;28;20119;-77
2023/06/18 10:59:42;;;;;;;7.88;5.57;;;29.40;83.80;;;;;;5128309;27;20075;-78
2023/06/18 11:02:11;;;;;;;8.35;5.75;;;29.70;83.50;;;;;;5113118;28;20051;-77
2023/06/18 11:04:37;;;;;;;6.13;5.40;;;30.00;81.00;;;;;;5116536;28;20401;-77
2023/06/18 11:07:23;;;;;;;7.75;5.68;;;29.90;79.90;;;;;;5108285;28;20043;-78
2023/06/18 11:09:58;;;;;;;7.35;5.43;;;29.90;80.00;;;;;;5103876;28;20047;-77
2023/06/18 11:12:24;;;;;;;8.85;6.40;;;29.80;80.30;;;;;;5097239;28;20048;-77
2023/06/18 11:15:16;;;;;;;8.40;6.50;;;29.80;79.80;;;;;;5117949;28;20047;-77
2023/06/18 11:17:48;;;;;;;10.20;6.10;;;29.80;78.90;;;;;;5099684;28;20455;-77
2023/06/18 11:20:17;;;;;;;9.68;6.05;;;29.70;78.70;;;;;;5091183;28;20100;-76
2023/06/18 11:22:42;;;;;;;8.38;5.60;;;29.60;79.70;;;;;;5097171;28;20090;-76
2023/06/18 11:25:10;;;;;;;7.40;5.90;;;29.70;78.50;;;;;;5117960;27;20080;-76
2023/06/18 11:27:40;;;;;;;8.95;6.07;;;29.60;77.70;;;;;;5110393;28;20119;-76
2023/06/18 11:30:07;;;;;;;10.70;6.38;;;29.60;77.00;;;;;;5110298;28;20051;-77
2023/06/18 11:32:33;;;;;;;7.47;5.75;;;29.60;77.60;;;;;;5108142;28;20054;-77
2023/06/18 11:35:00;;;;;;;17.38;6.38;;;29.60;77.20;;;;;;5129533;27;20027;-78
2023/06/18 11:37:27;;;;;;;6.15;5.30;;;29.50;77.10;;;;;;5112553;27;20039;-78
2023/06/18 11:39:55;;;;;;;10.60;6.18;;;29.50;76.50;;;;;;5118333;28;20036;-76
2023/06/18 11:42:21;;;;;;;10.07;6.25;;;29.30;76.40;;;;;;5128028;27;20047;-75
2023/06/18 11:44:50;;;;;;;11.20;6.32;;;29.20;77.00;;;;;;5127717;27;20100;-76
2023/06/18 11:47:15;;;;;;;9.25;6.22;;;29.10;77.10;;;;;;5120982;28;20039;-76
2023/06/18 11:49:51;;;;;;;18.38;6.43;;;29.10;76.50;;;;;;5122085;28;20036;-76
2023/06/18 11:52:21;;;;;;;8.85;6.65;;;29.10;76.50;;;;;;5099630;28;20084;-75
2023/06/18 11:54:48;;;;;;;8.13;6.28;;;29.10;77.50;;;;;;5112544;28;20039;-76
2023/06/18 11:57:16;;;;;;;11.00;6.18;;;29.10;76.50;;;;;;5120072;27;20058;-76
2023/06/18 11:59:44;;;;;;;9.43;6.25;;;29.00;76.80;;;;;;5115371;27;20522;-77
2023/06/18 12:02:11;;;;;;;;;;;29.20;75.70;;;;;;5086526;28;20485;-77
2023/06/18 12:04:40;;;;;;;11.13;6.72;;;29.20;76.40;;;;;;5091106;28;20369;-77
2023/06/18 12:07:06;;;;;;;7.47;5.93;;;29.30;77.00;;;;;;5096069;28;20393;-77
2023/06/18 12:09:33;;;;;;;9.85;6.28;;;29.30;75.60;;;;;;5091763;28;20688;-76
2023/06/18 12:12:14;;;;;;;8.15;6.28;;;29.40;75.60;;;;;;5095455;28;20044;-79
2023/06/18 12:14:49;;;;;;;7.68;6.55;;;29.50;74.70;;;;;;5107318;28;20424;-76
2023/06/18 12:17:33;;;;;;;8.93;6.20;;;29.60;73.50;;;;;;5112451;28;20508;-78
2023/06/18 12:20:05;;;;;;;11.80;6.13;;;29.50;73.30;;;;;;5095407;27;20130;-77
2023/06/18 12:22:31;;;;;;;10.45;6.10;;;29.30;74.90;;;;;;5097251;28;20032;-78
2023/06/18 12:24:57;;;;;;;7.35;5.75;;;29.30;74.90;;;;;;5119748;27;20040;-77
2023/06/18 12:27:25;;;;;;;11.05;5.88;;;29.40;76.00;;;;;;5113963;28;20028;-77
2023/06/18 12:29:51;;;;;;;8.10;6.28;;;29.50;75.90;;;;;;5125288;27;20094;-77
2023/06/18 12:32:17;;;;;;;9.38;5.97;;;29.60;76.60;;;;;;5108694;27;20047;-77
2023/06/18 12:34:43;;;;;;;9.70;6.07;;;29.80;75.90;;;;;;5106280;28;20040;-77
2023/06/18 12:37:11;;;;;;;11.95;6.10;;;30.10;74.90;;;;;;5116218;28;20072;-76